This is the latest recevied weather packets stored in our database for station/object KC7RJK-2. If no packets are shown the sender has not sent any weather packets the latest 10 day(s).
| Time | Temp. | Humidity | Pressure | Rain* | Wind** | Luminosity | Snow |
|---|---|---|---|---|---|---|---|
| 1787369606 | 21.11° C | 67% | 1015.1 hPa | 0 mm | - | - | - |
| 1787369008 | 21.67° C | 66% | 1015 hPa | 0 mm | - | - | - |
| 1787368405 | 22.22° C | 64% | 1014.9 hPa | 0 mm | - | - | - |
| 1787367805 | 22.78° C | 63% | 1014.7 hPa | 0 mm | - | - | - |
| 1787367204 | 23.33° C | 61% | 1014.6 hPa | 0 mm | - | - | - |
| 1787366608 | 23.89° C | 60% | 1014.4 hPa | 0 mm | - | - | - |
| 1787366006 | 24.44° C | 59% | 1014.2 hPa | 0 mm | - | - | - |
| 1787365406 | 25° C | 57% | 1014 hPa | 0 mm | - | - | - |
| 1787364805 | 25.56° C | 54% | 1014 hPa | 0 mm | - | - | - |
| 1787364206 | 26.11° C | 50% | 1013.9 hPa | 0 mm | - | - | - |
| 1787363607 | 26.67° C | 48% | 1013.9 hPa | 0 mm | - | - | - |
| 1787363005 | 27.22° C | 47% | 1013.9 hPa | 0 mm | - | - | - |
| 1787362405 | 27.22° C | 47% | 1013.9 hPa | 0 mm | - | - | - |
| 1787361804 | 27.78° C | 47% | 1014 hPa | 0 mm | - | - | - |
| 1787361210 | 27.78° C | 44% | 1013.9 hPa | 0 mm | - | - | - |
| 1787360605 | 28.33° C | 45% | 1014 hPa | 0 mm | - | - | - |
| 1787360008 | 28.33° C | 43% | 1014 hPa | 0 mm | - | - | - |
| 1787359406 | 28.33° C | 43% | 1014.1 hPa | 0 mm | - | - | - |
| 1787358806 | 28.89° C | 43% | 1014.2 hPa | 0 mm | - | - | - |
| 1787358205 | 28.33° C | 44% | 1014.3 hPa | 0 mm | - | - | - |
| 1787357605 | 27.78° C | 45% | 1014.4 hPa | 0 mm | - | - | - |
| 1787357004 | 27.78° C | 47% | 1014.4 hPa | 0 mm | - | - | - |
* Rain latest hour (hover to see other rain measurements)
** Current wind speed in m/s (hover to see current wind gust speed)